Saipan Mariana Islands, Northern Mariana Islands
Current Conditions -  °F | °C
As of 1:54 PM on Saturday 25 Oct 2014 (Local Time) from PGSN Reporting Station
Broken Clouds Broken Clouds  
Wind Chill: 87°   Ceiling: 2700
Heat Index: 99°   Visibility: 10mi
Dew Point: 77°   Wind: 13mph
Humidity: 72%   Direction: 60°ENE
Pressure: 29.88"   Gusts: NA
Location:  15.182°N, 145.755°E
Report Text: PGSN 250354Z 06011KT 10SM SCT021 BKN027 BKN038 31/25 A2988 RMK AO2 SLP139 T03060250 $
Loading
Personal Weather Stations






























Interactive Weather Map
Tropical Storm Tracking
New forecast layout! Learn more

10-Day Weather Forecast

Advertisements
Track Severe Weather on mobile